Rothschild, WI

12:14 PM CDT on July 14, 2014 (GMT -0500)
Wausau Downtown (KAUW) Elev 1201 ft | 44.93 °N, 89.63 °W | Change Station

Current weather conditions updated 20 minutes ago

Overcast
Overcast
65 °F
Feels Like 65 °F
N
13
Wind Variable Wind from WNW

Today is forecast to be Much Cooler than yesterday. Thunderstorms.

Today
High -- | Low -- °F
--% Chance of Precip.
Yesterday
High -- | Low -- °F
Precip. -- in
5:25 AM 8:42 PM
Waning Gibbous, 92% visible
Pressure 29.84 in
Visibility 10.0 miles
Clouds Few 4300 ft
Mostly Cloudy 7000 ft
Overcast 10000 ft
Dew Point 48 °F
Humidity 54%
Rainfall 0.00 in
Snow Depth Not available.
UV 3 out of 12
Pollen 3.80 out of 12
Air Quality Not available.
Flu Activity Sporadic
METAR KAUW 141654Z AUTO 29011KT 10SM FEW043 BKN070 OVC100 18/09 A2984 RMK AO2 SLP105 T01830089

More Conditions Fewer Conditions

Pressure 29.84 in
Visibility 10.0 miles
Clouds Few 4300 ft
Mostly Cloudy 7000 ft
Overcast 10000 ft
Dew Point 48 °F
Humidity 54%
Rainfall 0.00 in
Snow Depth Not available.
UV 3 out of 12
Pollen 3.80 out of 12
Air Quality Not available.
Flu Activity Sporadic
METAR KAUW 141654Z AUTO 29011KT 10SM FEW043 BKN070 OVC100 18/09 A2984 RMK AO2 SLP105 T01830089

More Conditions Fewer Conditions

10-Day Weather Forecast

Almanac

Astronomy

Jul. 14, 2014 Rise Set
Actual Time 5:25 AM CDT 8:42 PM CDT
Civil Twilight 4:49 AM CDT 9:18 PM CDT
Nautical Twilight 4:02 AM CDT 10:05 PM CDT
Astronomical Twilight 3:04 AM CDT 11:03 PM CDT
Moon 10:01 PM CDT 8:17 AM CDT
Length of Visible Light 16h 29m
Length of Day
15h 17m
Tomorrow will be 1m 37s shorter.
Waning Gibbous, 92% of the Moon is Illuminated
Today
Waning Gibbous
Jul 18
Last Quarter
Jul 26
New
Aug 3
First Quarter
Aug 10
Full

Today's Extremes

State Highs State Lows

Community

WunderPhotos

Upload Photos

1,733,740 photos uploaded!

WunderBlogs® & News

Nearby

Snow Depth

Station Depth Elevation
No new snow has been reported.

Earthquake Activity

City Distance Mag. Time & Date
No recent earthquake activity has been reported nearby.
Minimum magnitude displayed is 2.5.

Coastal Water Temperatures

Place Temperature
No Stations Reporting

Nearby Weather Stations

Station Location Temp. Dew Point Humidity Wind Precip. Elev Updated Type
Hawthorn Hills Elementary School, Wausau, WI 59.6 °F 49 °F 68% NNW  at  5.0 mph 0.00 in / hr 1201 ft 12:14 PM CDT Rapid Fire
Knopf's House, Weston, WI 67.6 °F 51 °F 56% West  at  9.4 mph - / hr 1214 ft 12:04 PM CDT Normal
6 White Pillars, Wausau, WI 57.4 °F 49 °F 74% SW  at  7.0 mph 0.00 in / hr 1381 ft 12:14 PM CDT Normal
Rib Falls Repair, Athens, WI 53.9 °F 51 °F 91% West  at  0.0 mph 0.05 in / hr 1348 ft 12:13 PM CDT Normal
RAWS Mead WI, Blenker, WI 67 °F 52 °F 58% WNW  at  8 mph 0.00 in / hr 1149 ft 11:05 AM CDT MADIS
Wittenberg Wi., Wittenberg, WI 66.9 °F 51 °F 57% SSW  at  1.3 mph 0.00 in / hr 1191 ft 12:14 PM CDT Rapid Fire

Show More Stations Show Fewer Stations